sensor_id;sensor_type;location;lat;lon;timestamp;temperature;humidity
9837;DHT22;4957;51.412;6.724;2023-08-06T00:00:16;17.40;99.90
9837;DHT22;4957;51.412;6.724;2023-08-06T00:02:41;17.40;99.90
9837;DHT22;4957;51.412;6.724;2023-08-06T00:05:07;17.40;99.90
9837;DHT22;4957;51.412;6.724;2023-08-06T00:07:33;17.40;99.90
9837;DHT22;4957;51.412;6.724;2023-08-06T00:09:58;17.40;99.90
9837;DHT22;4957;51.412;6.724;2023-08-06T00:12:24;17.30;99.90
9837;DHT22;4957;51.412;6.724;2023-08-06T00:14:51;17.30;99.90
9837;DHT22;4957;51.412;6.724;2023-08-06T00:17:17;17.30;99.90
9837;DHT22;4957;51.412;6.724;2023-08-06T00:19:43;17.30;99.90
9837;DHT22;4957;51.412;6.724;2023-08-06T00:22:08;17.30;99.90
9837;DHT22;4957;51.412;6.724;2023-08-06T00:24:34;17.30;99.90
9837;DHT22;4957;51.412;6.724;2023-08-06T00:27:01;17.30;99.90
9837;DHT22;4957;51.412;6.724;2023-08-06T00:29:26;17.20;99.90
9837;DHT22;4957;51.412;6.724;2023-08-06T00:31:52;17.20;99.90
9837;DHT22;4957;51.412;6.724;2023-08-06T00:34:18;17.20;99.90
9837;DHT22;4957;51.412;6.724;2023-08-06T00:36:43;17.20;99.90
9837;DHT22;4957;51.412;6.724;2023-08-06T00:39:09;17.20;99.90
9837;DHT22;4957;51.412;6.724;2023-08-06T00:41:35;17.20;99.90
9837;DHT22;4957;51.412;6.724;2023-08-06T00:44:00;17.20;99.90
9837;DHT22;4957;51.412;6.724;2023-08-06T00:46:27;17.10;99.90
9837;DHT22;4957;51.412;6.724;2023-08-06T00:48:52;17.20;99.90
9837;DHT22;4957;51.412;6.724;2023-08-06T00:51:19;17.10;99.90
9837;DHT22;4957;51.412;6.724;2023-08-06T00:53:44;17.10;99.90
9837;DHT22;4957;51.412;6.724;2023-08-06T00:56:10;17.10;99.90
9837;DHT22;4957;51.412;6.724;2023-08-06T00:58:37;17.10;99.90
9837;DHT22;4957;51.412;6.724;2023-08-06T01:01:03;17.10;99.90
9837;DHT22;4957;51.412;6.724;2023-08-06T01:03:29;17.10;99.90
9837;DHT22;4957;51.412;6.724;2023-08-06T01:05:55;17.10;99.90
9837;DHT22;4957;51.412;6.724;2023-08-06T01:08:31;17.10;99.90
9837;DHT22;4957;51.412;6.724;2023-08-06T01:13:55;17.10;99.90
9837;DHT22;4957;51.412;6.724;2023-08-06T01:16:24;17.00;99.90
9837;DHT22;4957;51.412;6.724;2023-08-06T01:18:50;17.10;99.90
9837;DHT22;4957;51.412;6.724;2023-08-06T01:21:16;17.10;99.90
9837;DHT22;4957;51.412;6.724;2023-08-06T01:23:43;17.10;99.90
9837;DHT22;4957;51.412;6.724;2023-08-06T01:29:10;17.10;99.90
9837;DHT22;4957;51.412;6.724;2023-08-06T01:31:37;17.10;99.90
9837;DHT22;4957;51.412;6.724;2023-08-06T01:36:47;17.00;99.90
9837;DHT22;4957;51.412;6.724;2023-08-06T01:39:13;17.00;99.90
9837;DHT22;4957;51.412;6.724;2023-08-06T01:41:38;17.00;99.90
9837;DHT22;4957;51.412;6.724;2023-08-06T01:44:04;17.00;99.90
9837;DHT22;4957;51.412;6.724;2023-08-06T01:46:30;17.00;99.90
9837;DHT22;4957;51.412;6.724;2023-08-06T01:48:55;17.00;99.90
9837;DHT22;4957;51.412;6.724;2023-08-06T01:51:21;17.00;99.90
9837;DHT22;4957;51.412;6.724;2023-08-06T01:53:47;17.00;99.90
9837;DHT22;4957;51.412;6.724;2023-08-06T01:56:12;17.00;99.90
9837;DHT22;4957;51.412;6.724;2023-08-06T01:58:38;17.00;99.90
9837;DHT22;4957;51.412;6.724;2023-08-06T02:01:04;17.00;99.90
9837;DHT22;4957;51.412;6.724;2023-08-06T02:03:29;17.00;99.90
9837;DHT22;4957;51.412;6.724;2023-08-06T02:05:55;17.00;99.90
9837;DHT22;4957;51.412;6.724;2023-08-06T02:08:20;17.00;99.90
9837;DHT22;4957;51.412;6.724;2023-08-06T02:10:47;17.00;99.90
9837;DHT22;4957;51.412;6.724;2023-08-06T02:13:12;17.00;99.90
9837;DHT22;4957;51.412;6.724;2023-08-06T02:15:47;17.00;99.90
9837;DHT22;4957;51.412;6.724;2023-08-06T02:18:13;17.00;99.90
9837;DHT22;4957;51.412;6.724;2023-08-06T02:20:40;16.90;99.90
9837;DHT22;4957;51.412;6.724;2023-08-06T02:23:07;16.90;99.90
9837;DHT22;4957;51.412;6.724;2023-08-06T02:25:33;16.90;99.90
9837;DHT22;4957;51.412;6.724;2023-08-06T02:27:59;16.90;99.90
9837;DHT22;4957;51.412;6.724;2023-08-06T02:30:24;16.90;99.90
9837;DHT22;4957;51.412;6.724;2023-08-06T02:32:50;16.90;99.90
9837;DHT22;4957;51.412;6.724;2023-08-06T02:35:16;16.90;99.90
9837;DHT22;4957;51.412;6.724;2023-08-06T02:37:42;16.90;99.90
9837;DHT22;4957;51.412;6.724;2023-08-06T02:40:08;16.90;99.90
9837;DHT22;4957;51.412;6.724;2023-08-06T02:42:33;16.90;99.90
9837;DHT22;4957;51.412;6.724;2023-08-06T02:44:59;16.90;99.90
9837;DHT22;4957;51.412;6.724;2023-08-06T02:47:25;16.90;99.90
9837;DHT22;4957;51.412;6.724;2023-08-06T02:49:51;16.90;99.90
9837;DHT22;4957;51.412;6.724;2023-08-06T02:52:17;16.80;99.90
9837;DHT22;4957;51.412;6.724;2023-08-06T02:54:42;16.80;99.90
9837;DHT22;4957;51.412;6.724;2023-08-06T02:57:08;16.80;99.90
9837;DHT22;4957;51.412;6.724;2023-08-06T02:59:34;16.80;99.90
9837;DHT22;4957;51.412;6.724;2023-08-06T03:01:59;16.80;99.90
9837;DHT22;4957;51.412;6.724;2023-08-06T03:04:25;16.80;99.90
9837;DHT22;4957;51.412;6.724;2023-08-06T03:06:51;16.80;99.90
9837;DHT22;4957;51.412;6.724;2023-08-06T03:09:17;16.80;99.90
9837;DHT22;4957;51.412;6.724;2023-08-06T03:11:43;16.70;99.90
9837;DHT22;4957;51.412;6.724;2023-08-06T03:14:08;16.70;99.90
9837;DHT22;4957;51.412;6.724;2023-08-06T03:16:34;16.70;99.90
9837;DHT22;4957;51.412;6.724;2023-08-06T03:19:00;16.70;99.90
9837;DHT22;4957;51.412;6.724;2023-08-06T03:21:26;16.70;99.90
9837;DHT22;4957;51.412;6.724;2023-08-06T03:23:51;16.70;99.90
9837;DHT22;4957;51.412;6.724;2023-08-06T03:26:17;16.70;99.90
9837;DHT22;4957;51.412;6.724;2023-08-06T03:28:42;16.70;99.90
9837;DHT22;4957;51.412;6.724;2023-08-06T03:31:09;16.70;99.90
9837;DHT22;4957;51.412;6.724;2023-08-06T03:33:34;16.70;99.90
9837;DHT22;4957;51.412;6.724;2023-08-06T03:36:00;16.70;99.90
9837;DHT22;4957;51.412;6.724;2023-08-06T03:38:26;16.70;99.90
9837;DHT22;4957;51.412;6.724;2023-08-06T03:40:52;16.70;99.90
9837;DHT22;4957;51.412;6.724;2023-08-06T03:43:17;16.70;99.90
9837;DHT22;4957;51.412;6.724;2023-08-06T03:45:43;16.70;99.90
9837;DHT22;4957;51.412;6.724;2023-08-06T03:48:09;16.70;99.90
9837;DHT22;4957;51.412;6.724;2023-08-06T03:50:35;16.70;99.90
9837;DHT22;4957;51.412;6.724;2023-08-06T03:53:01;16.70;99.90
9837;DHT22;4957;51.412;6.724;2023-08-06T03:55:27;16.70;99.90
9837;DHT22;4957;51.412;6.724;2023-08-06T03:57:53;16.70;99.90
9837;DHT22;4957;51.412;6.724;2023-08-06T04:00:18;16.60;99.90
9837;DHT22;4957;51.412;6.724;2023-08-06T04:02:44;16.60;99.90
9837;DHT22;4957;51.412;6.724;2023-08-06T04:05:10;16.60;99.90
9837;DHT22;4957;51.412;6.724;2023-08-06T04:07:36;16.60;99.90
9837;DHT22;4957;51.412;6.724;2023-08-06T04:10:03;16.60;99.90
9837;DHT22;4957;51.412;6.724;2023-08-06T04:12:30;16.60;99.90
9837;DHT22;4957;51.412;6.724;2023-08-06T04:14:57;16.60;99.90
9837;DHT22;4957;51.412;6.724;2023-08-06T04:17:23;16.60;99.90
9837;DHT22;4957;51.412;6.724;2023-08-06T04:19:53;16.60;99.90
9837;DHT22;4957;51.412;6.724;2023-08-06T04:22:20;16.60;99.90
9837;DHT22;4957;51.412;6.724;2023-08-06T04:24:46;16.60;99.90
9837;DHT22;4957;51.412;6.724;2023-08-06T04:27:14;16.60;99.90
9837;DHT22;4957;51.412;6.724;2023-08-06T04:29:40;16.60;99.90
9837;DHT22;4957;51.412;6.724;2023-08-06T04:32:07;16.60;99.90
9837;DHT22;4957;51.412;6.724;2023-08-06T04:34:33;16.60;99.90
9837;DHT22;4957;51.412;6.724;2023-08-06T04:36:59;16.60;99.90
9837;DHT22;4957;51.412;6.724;2023-08-06T04:39:25;16.60;99.90
9837;DHT22;4957;51.412;6.724;2023-08-06T04:41:51;16.60;99.90
9837;DHT22;4957;51.412;6.724;2023-08-06T04:44:16;16.60;99.90
9837;DHT22;4957;51.412;6.724;2023-08-06T04:46:42;16.60;99.90
9837;DHT22;4957;51.412;6.724;2023-08-06T04:49:08;16.60;99.90
9837;DHT22;4957;51.412;6.724;2023-08-06T04:51:33;16.60;99.90
9837;DHT22;4957;51.412;6.724;2023-08-06T04:53:59;16.50;99.90
9837;DHT22;4957;51.412;6.724;2023-08-06T04:56:24;16.60;99.90
9837;DHT22;4957;51.412;6.724;2023-08-06T04:58:50;16.60;99.90
9837;DHT22;4957;51.412;6.724;2023-08-06T05:01:17;16.60;99.90
9837;DHT22;4957;51.412;6.724;2023-08-06T05:03:43;16.60;99.90
9837;DHT22;4957;51.412;6.724;2023-08-06T05:06:09;16.60;99.90
9837;DHT22;4957;51.412;6.724;2023-08-06T05:08:36;16.60;99.90
9837;DHT22;4957;51.412;6.724;2023-08-06T05:11:12;16.60;99.90
9837;DHT22;4957;51.412;6.724;2023-08-06T05:13:38;16.60;99.90
9837;DHT22;4957;51.412;6.724;2023-08-06T05:16:04;16.60;99.90
9837;DHT22;4957;51.412;6.724;2023-08-06T05:18:30;16.60;99.90
9837;DHT22;4957;51.412;6.724;2023-08-06T05:20:56;16.60;99.90
9837;DHT22;4957;51.412;6.724;2023-08-06T05:23:21;16.60;99.90
9837;DHT22;4957;51.412;6.724;2023-08-06T05:25:47;16.60;99.90
9837;DHT22;4957;51.412;6.724;2023-08-06T05:28:13;16.60;99.90
9837;DHT22;4957;51.412;6.724;2023-08-06T05:30:41;16.60;99.90
9837;DHT22;4957;51.412;6.724;2023-08-06T05:33:07;16.60;99.90
9837;DHT22;4957;51.412;6.724;2023-08-06T05:35:33;16.60;99.90
9837;DHT22;4957;51.412;6.724;2023-08-06T05:37:59;16.60;99.90
9837;DHT22;4957;51.412;6.724;2023-08-06T05:40:25;16.60;99.90
9837;DHT22;4957;51.412;6.724;2023-08-06T05:42:53;16.70;99.90
9837;DHT22;4957;51.412;6.724;2023-08-06T05:45:19;16.70;99.90
9837;DHT22;4957;51.412;6.724;2023-08-06T05:47:44;16.70;99.90
9837;DHT22;4957;51.412;6.724;2023-08-06T05:50:10;16.70;99.90
9837;DHT22;4957;51.412;6.724;2023-08-06T05:52:35;16.70;99.90
9837;DHT22;4957;51.412;6.724;2023-08-06T05:55:01;16.70;99.90
9837;DHT22;4957;51.412;6.724;2023-08-06T05:57:27;16.80;99.90
9837;DHT22;4957;51.412;6.724;2023-08-06T05:59:53;16.80;99.90
9837;DHT22;4957;51.412;6.724;2023-08-06T06:02:18;16.80;99.90
9837;DHT22;4957;51.412;6.724;2023-08-06T06:04:44;16.90;99.90
9837;DHT22;4957;51.412;6.724;2023-08-06T06:07:10;16.90;99.90
9837;DHT22;4957;51.412;6.724;2023-08-06T06:09:35;17.00;99.90
9837;DHT22;4957;51.412;6.724;2023-08-06T06:12:01;16.90;99.90
9837;DHT22;4957;51.412;6.724;2023-08-06T06:14:27;17.00;99.90
9837;DHT22;4957;51.412;6.724;2023-08-06T06:16:52;17.00;99.90
9837;DHT22;4957;51.412;6.724;2023-08-06T06:19:18;17.10;99.90
9837;DHT22;4957;51.412;6.724;2023-08-06T06:21:44;17.10;99.90
9837;DHT22;4957;51.412;6.724;2023-08-06T06:24:09;17.10;99.90
9837;DHT22;4957;51.412;6.724;2023-08-06T06:26:35;17.10;99.90
9837;DHT22;4957;51.412;6.724;2023-08-06T06:29:01;17.20;99.90
9837;DHT22;4957;51.412;6.724;2023-08-06T06:31:26;17.20;99.90
9837;DHT22;4957;51.412;6.724;2023-08-06T06:33:52;17.20;99.90
9837;DHT22;4957;51.412;6.724;2023-08-06T06:36:19;17.30;99.90
9837;DHT22;4957;51.412;6.724;2023-08-06T06:38:45;17.40;99.90
9837;DHT22;4957;51.412;6.724;2023-08-06T06:41:11;17.40;99.90
9837;DHT22;4957;51.412;6.724;2023-08-06T06:43:37;17.50;99.90
9837;DHT22;4957;51.412;6.724;2023-08-06T06:46:05;17.60;99.90
9837;DHT22;4957;51.412;6.724;2023-08-06T06:48:32;17.70;99.90
9837;DHT22;4957;51.412;6.724;2023-08-06T06:50:58;17.90;99.90
9837;DHT22;4957;51.412;6.724;2023-08-06T06:53:24;18.00;99.90
9837;DHT22;4957;51.412;6.724;2023-08-06T06:55:56;18.20;99.90
9837;DHT22;4957;51.412;6.724;2023-08-06T06:58:22;18.30;99.90
9837;DHT22;4957;51.412;6.724;2023-08-06T07:00:48;18.40;99.90
9837;DHT22;4957;51.412;6.724;2023-08-06T07:03:14;18.60;99.90
9837;DHT22;4957;51.412;6.724;2023-08-06T07:05:40;18.70;99.90
9837;DHT22;4957;51.412;6.724;2023-08-06T07:08:06;18.80;99.90
9837;DHT22;4957;51.412;6.724;2023-08-06T07:10:31;18.80;99.90
9837;DHT22;4957;51.412;6.724;2023-08-06T07:12:57;18.90;99.90
9837;DHT22;4957;51.412;6.724;2023-08-06T07:15:23;19.00;99.90
9837;DHT22;4957;51.412;6.724;2023-08-06T07:17:48;19.00;99.90
9837;DHT22;4957;51.412;6.724;2023-08-06T07:20:14;19.10;99.90
9837;DHT22;4957;51.412;6.724;2023-08-06T07:22:40;19.20;99.90
9837;DHT22;4957;51.412;6.724;2023-08-06T07:25:06;19.20;99.90
9837;DHT22;4957;51.412;6.724;2023-08-06T07:27:32;19.30;99.90
9837;DHT22;4957;51.412;6.724;2023-08-06T07:29:58;19.40;99.90
9837;DHT22;4957;51.412;6.724;2023-08-06T07:32:24;19.40;99.90
9837;DHT22;4957;51.412;6.724;2023-08-06T07:34:49;19.50;99.90
9837;DHT22;4957;51.412;6.724;2023-08-06T07:37:15;19.50;99.90
9837;DHT22;4957;51.412;6.724;2023-08-06T07:39:40;19.60;99.90
9837;DHT22;4957;51.412;6.724;2023-08-06T07:42:08;19.70;99.90
9837;DHT22;4957;51.412;6.724;2023-08-06T07:44:33;19.70;99.90
9837;DHT22;4957;51.412;6.724;2023-08-06T07:46:59;19.70;99.90
9837;DHT22;4957;51.412;6.724;2023-08-06T07:49:25;19.70;99.90
9837;DHT22;4957;51.412;6.724;2023-08-06T07:51:50;19.80;99.90
9837;DHT22;4957;51.412;6.724;2023-08-06T07:54:17;19.80;99.90
9837;DHT22;4957;51.412;6.724;2023-08-06T07:56:42;19.80;99.90
9837;DHT22;4957;51.412;6.724;2023-08-06T07:59:08;19.80;99.90
9837;DHT22;4957;51.412;6.724;2023-08-06T08:01:34;19.90;99.90
9837;DHT22;4957;51.412;6.724;2023-08-06T08:04:00;19.90;99.90
9837;DHT22;4957;51.412;6.724;2023-08-06T08:06:26;19.90;99.90
9837;DHT22;4957;51.412;6.724;2023-08-06T08:08:51;19.90;99.90
9837;DHT22;4957;51.412;6.724;2023-08-06T08:11:17;19.90;99.90
9837;DHT22;4957;51.412;6.724;2023-08-06T08:13:44;19.90;99.90
9837;DHT22;4957;51.412;6.724;2023-08-06T08:16:09;19.90;99.90
9837;DHT22;4957;51.412;6.724;2023-08-06T08:18:35;20.00;99.90
9837;DHT22;4957;51.412;6.724;2023-08-06T08:21:01;19.90;99.90
9837;DHT22;4957;51.412;6.724;2023-08-06T08:23:26;19.90;99.90
9837;DHT22;4957;51.412;6.724;2023-08-06T08:25:52;20.00;99.90
9837;DHT22;4957;51.412;6.724;2023-08-06T08:28:19;20.00;99.90
9837;DHT22;4957;51.412;6.724;2023-08-06T08:30:45;20.00;99.90
9837;DHT22;4957;51.412;6.724;2023-08-06T08:33:10;20.00;99.90
9837;DHT22;4957;51.412;6.724;2023-08-06T08:35:36;20.00;99.90
9837;DHT22;4957;51.412;6.724;2023-08-06T08:38:03;20.00;99.90
9837;DHT22;4957;51.412;6.724;2023-08-06T08:40:32;20.00;99.90
9837;DHT22;4957;51.412;6.724;2023-08-06T08:43:02;20.00;99.90
9837;DHT22;4957;51.412;6.724;2023-08-06T08:45:29;20.10;99.90
9837;DHT22;4957;51.412;6.724;2023-08-06T08:47:55;20.10;99.90
9837;DHT22;4957;51.412;6.724;2023-08-06T08:50:21;20.10;99.90
9837;DHT22;4957;51.412;6.724;2023-08-06T08:52:47;20.10;99.90
9837;DHT22;4957;51.412;6.724;2023-08-06T08:55:16;20.10;99.90
9837;DHT22;4957;51.412;6.724;2023-08-06T08:57:42;20.10;99.90
9837;DHT22;4957;51.412;6.724;2023-08-06T09:00:08;20.20;99.90
9837;DHT22;4957;51.412;6.724;2023-08-06T09:02:35;20.20;99.90
9837;DHT22;4957;51.412;6.724;2023-08-06T09:05:04;20.30;99.90
9837;DHT22;4957;51.412;6.724;2023-08-06T09:07:35;20.30;99.90
9837;DHT22;4957;51.412;6.724;2023-08-06T09:10:02;20.30;99.90
9837;DHT22;4957;51.412;6.724;2023-08-06T09:12:31;20.40;99.90
9837;DHT22;4957;51.412;6.724;2023-08-06T09:14:57;20.40;99.90
9837;DHT22;4957;51.412;6.724;2023-08-06T09:17:23;20.40;99.90
9837;DHT22;4957;51.412;6.724;2023-08-06T09:19:49;20.40;99.90
9837;DHT22;4957;51.412;6.724;2023-08-06T09:22:15;20.40;99.90
9837;DHT22;4957;51.412;6.724;2023-08-06T09:24:42;20.40;99.90
9837;DHT22;4957;51.412;6.724;2023-08-06T09:27:14;20.40;99.90
9837;DHT22;4957;51.412;6.724;2023-08-06T09:29:43;20.40;99.90
9837;DHT22;4957;51.412;6.724;2023-08-06T09:32:09;20.40;99.90
9837;DHT22;4957;51.412;6.724;2023-08-06T09:34:34;20.40;99.90
9837;DHT22;4957;51.412;6.724;2023-08-06T09:37:00;20.40;99.90
9837;DHT22;4957;51.412;6.724;2023-08-06T09:39:28;20.40;99.90
9837;DHT22;4957;51.412;6.724;2023-08-06T09:41:59;20.40;99.90
9837;DHT22;4957;51.412;6.724;2023-08-06T09:44:27;20.40;99.90
9837;DHT22;4957;51.412;6.724;2023-08-06T09:46:57;20.40;99.90
9837;DHT22;4957;51.412;6.724;2023-08-06T09:51:58;20.40;99.90
9837;DHT22;4957;51.412;6.724;2023-08-06T09:54:26;20.50;99.90
9837;DHT22;4957;51.412;6.724;2023-08-06T09:56:53;20.50;99.90
9837;DHT22;4957;51.412;6.724;2023-08-06T09:59:20;20.60;99.90
9837;DHT22;4957;51.412;6.724;2023-08-06T10:01:46;20.70;99.90
9837;DHT22;4957;51.412;6.724;2023-08-06T10:04:14;20.80;99.90
9837;DHT22;4957;51.412;6.724;2023-08-06T10:06:42;21.00;99.90
9837;DHT22;4957;51.412;6.724;2023-08-06T10:09:08;21.10;99.90
9837;DHT22;4957;51.412;6.724;2023-08-06T10:11:37;21.20;99.90
9837;DHT22;4957;51.412;6.724;2023-08-06T10:16:34;21.40;99.90
9837;DHT22;4957;51.412;6.724;2023-08-06T10:19:02;21.50;99.90
9837;DHT22;4957;51.412;6.724;2023-08-06T10:21:31;21.60;99.90
9837;DHT22;4957;51.412;6.724;2023-08-06T10:23:57;21.60;99.90
9837;DHT22;4957;51.412;6.724;2023-08-06T10:26:30;21.60;99.90
9837;DHT22;4957;51.412;6.724;2023-08-06T10:28:56;21.60;99.90
9837;DHT22;4957;51.412;6.724;2023-08-06T10:32:03;21.70;99.90
9837;DHT22;4957;51.412;6.724;2023-08-06T10:34:59;21.70;99.90
9837;DHT22;4957;51.412;6.724;2023-08-06T10:37:38;21.70;99.90
9837;DHT22;4957;51.412;6.724;2023-08-06T10:40:05;21.80;99.90
9837;DHT22;4957;51.412;6.724;2023-08-06T10:42:32;21.80;99.90
9837;DHT22;4957;51.412;6.724;2023-08-06T10:45:14;21.70;99.90
9837;DHT22;4957;51.412;6.724;2023-08-06T10:47:41;21.70;99.90
9837;DHT22;4957;51.412;6.724;2023-08-06T10:50:15;21.60;99.90
9837;DHT22;4957;51.412;6.724;2023-08-06T10:52:45;21.60;99.90
9837;DHT22;4957;51.412;6.724;2023-08-06T10:55:11;21.40;99.90
9837;DHT22;4957;51.412;6.724;2023-08-06T10:57:37;21.40;99.90
9837;DHT22;4957;51.412;6.724;2023-08-06T11:00:05;21.30;99.90
9837;DHT22;4957;51.412;6.724;2023-08-06T11:02:35;21.20;99.90
9837;DHT22;4957;51.412;6.724;2023-08-06T11:05:06;21.10;99.90
9837;DHT22;4957;51.412;6.724;2023-08-06T11:07:32;20.90;99.90
9837;DHT22;4957;51.412;6.724;2023-08-06T11:10:04;20.80;99.90
9837;DHT22;4957;51.412;6.724;2023-08-06T11:12:31;20.60;99.90
9837;DHT22;4957;51.412;6.724;2023-08-06T11:14:57;20.50;99.90
9837;DHT22;4957;51.412;6.724;2023-08-06T11:17:23;20.30;99.90
9837;DHT22;4957;51.412;6.724;2023-08-06T11:19:49;20.20;99.90
9837;DHT22;4957;51.412;6.724;2023-08-06T11:22:16;20.10;99.90
9837;DHT22;4957;51.412;6.724;2023-08-06T11:24:41;20.00;99.90
9837;DHT22;4957;51.412;6.724;2023-08-06T11:27:14;19.80;99.90
9837;DHT22;4957;51.412;6.724;2023-08-06T11:29:44;19.70;99.90
9837;DHT22;4957;51.412;6.724;2023-08-06T11:32:10;19.70;99.90
9837;DHT22;4957;51.412;6.724;2023-08-06T11:34:37;19.60;99.90
9837;DHT22;4957;51.412;6.724;2023-08-06T11:37:03;19.50;99.90
9837;DHT22;4957;51.412;6.724;2023-08-06T11:39:33;19.40;99.90
9837;DHT22;4957;51.412;6.724;2023-08-06T11:41:59;19.40;99.90
9837;DHT22;4957;51.412;6.724;2023-08-06T11:44:40;19.30;99.90
9837;DHT22;4957;51.412;6.724;2023-08-06T11:47:13;19.20;99.90
9837;DHT22;4957;51.412;6.724;2023-08-06T11:52:16;19.10;99.90
9837;DHT22;4957;51.412;6.724;2023-08-06T11:54:47;19.00;99.90
9837;DHT22;4957;51.412;6.724;2023-08-06T11:57:13;19.00;99.90
9837;DHT22;4957;51.412;6.724;2023-08-06T11:59:40;19.00;99.90
9837;DHT22;4957;51.412;6.724;2023-08-06T12:02:08;18.90;99.90
9837;DHT22;4957;51.412;6.724;2023-08-06T12:05:00;18.90;99.90
9837;DHT22;4957;51.412;6.724;2023-08-06T12:07:29;18.90;99.90
9837;DHT22;4957;51.412;6.724;2023-08-06T12:09:55;18.80;99.90
9837;DHT22;4957;51.412;6.724;2023-08-06T12:12:21;18.80;99.90
9837;DHT22;4957;51.412;6.724;2023-08-06T12:14:46;18.80;99.90
9837;DHT22;4957;51.412;6.724;2023-08-06T12:17:12;18.80;99.90
9837;DHT22;4957;51.412;6.724;2023-08-06T12:19:38;18.70;99.90
9837;DHT22;4957;51.412;6.724;2023-08-06T12:22:03;18.70;99.90
9837;DHT22;4957;51.412;6.724;2023-08-06T12:24:29;18.70;99.90
9837;DHT22;4957;51.412;6.724;2023-08-06T12:26:57;18.60;99.90
9837;DHT22;4957;51.412;6.724;2023-08-06T12:29:24;18.60;99.90
9837;DHT22;4957;51.412;6.724;2023-08-06T12:31:50;18.60;99.90
9837;DHT22;4957;51.412;6.724;2023-08-06T12:34:15;18.60;99.90
9837;DHT22;4957;51.412;6.724;2023-08-06T12:36:41;18.60;99.90
9837;DHT22;4957;51.412;6.724;2023-08-06T12:39:07;18.60;99.90
9837;DHT22;4957;51.412;6.724;2023-08-06T12:41:32;18.60;99.90
9837;DHT22;4957;51.412;6.724;2023-08-06T12:43:58;18.60;99.90
9837;DHT22;4957;51.412;6.724;2023-08-06T12:46:24;18.60;99.90
9837;DHT22;4957;51.412;6.724;2023-08-06T12:48:49;18.60;99.90
9837;DHT22;4957;51.412;6.724;2023-08-06T12:51:16;18.60;99.90
9837;DHT22;4957;51.412;6.724;2023-08-06T12:53:41;18.70;99.90
9837;DHT22;4957;51.412;6.724;2023-08-06T12:56:07;18.70;99.90
9837;DHT22;4957;51.412;6.724;2023-08-06T12:58:33;18.70;99.90
9837;DHT22;4957;51.412;6.724;2023-08-06T13:00:59;18.70;99.90
9837;DHT22;4957;51.412;6.724;2023-08-06T13:03:24;18.70;99.90
9837;DHT22;4957;51.412;6.724;2023-08-06T13:05:50;18.70;99.90
9837;DHT22;4957;51.412;6.724;2023-08-06T13:08:17;18.70;99.90
9837;DHT22;4957;51.412;6.724;2023-08-06T13:10:43;18.70;99.90
9837;DHT22;4957;51.412;6.724;2023-08-06T13:13:09;18.70;99.90
9837;DHT22;4957;51.412;6.724;2023-08-06T13:15:36;18.60;99.90
9837;DHT22;4957;51.412;6.724;2023-08-06T13:18:01;18.60;99.90
9837;DHT22;4957;51.412;6.724;2023-08-06T13:20:29;18.60;99.90
9837;DHT22;4957;51.412;6.724;2023-08-06T13:22:55;18.60;99.90
9837;DHT22;4957;51.412;6.724;2023-08-06T13:25:21;18.60;99.90
9837;DHT22;4957;51.412;6.724;2023-08-06T13:27:47;18.60;99.90
9837;DHT22;4957;51.412;6.724;2023-08-06T13:30:13;18.60;99.90
9837;DHT22;4957;51.412;6.724;2023-08-06T13:32:38;18.60;99.90
9837;DHT22;4957;51.412;6.724;2023-08-06T13:35:05;18.60;99.90
9837;DHT22;4957;51.412;6.724;2023-08-06T13:37:30;18.60;99.90
9837;DHT22;4957;51.412;6.724;2023-08-06T13:39:56;18.60;99.90
9837;DHT22;4957;51.412;6.724;2023-08-06T13:42:22;18.60;99.90
9837;DHT22;4957;51.412;6.724;2023-08-06T13:44:48;18.60;99.90
9837;DHT22;4957;51.412;6.724;2023-08-06T13:47:13;18.60;99.90
9837;DHT22;4957;51.412;6.724;2023-08-06T13:49:39;18.60;99.90
9837;DHT22;4957;51.412;6.724;2023-08-06T13:52:05;18.60;99.90
9837;DHT22;4957;51.412;6.724;2023-08-06T13:54:31;18.50;99.90
9837;DHT22;4957;51.412;6.724;2023-08-06T13:56:56;18.50;99.90
9837;DHT22;4957;51.412;6.724;2023-08-06T13:59:22;18.50;99.90
9837;DHT22;4957;51.412;6.724;2023-08-06T14:01:50;18.50;99.90
9837;DHT22;4957;51.412;6.724;2023-08-06T14:04:15;18.50;99.90
9837;DHT22;4957;51.412;6.724;2023-08-06T14:06:41;18.60;99.90
9837;DHT22;4957;51.412;6.724;2023-08-06T14:09:07;18.60;99.90
9837;DHT22;4957;51.412;6.724;2023-08-06T14:11:33;18.60;99.90
9837;DHT22;4957;51.412;6.724;2023-08-06T14:13:59;18.70;99.90
9837;DHT22;4957;51.412;6.724;2023-08-06T14:16:25;18.70;99.90
9837;DHT22;4957;51.412;6.724;2023-08-06T14:18:51;18.70;99.90
9837;DHT22;4957;51.412;6.724;2023-08-06T14:21:16;18.70;99.90
9837;DHT22;4957;51.412;6.724;2023-08-06T14:23:42;18.70;99.90
9837;DHT22;4957;51.412;6.724;2023-08-06T14:26:08;18.80;99.90
9837;DHT22;4957;51.412;6.724;2023-08-06T14:28:36;18.80;99.90
9837;DHT22;4957;51.412;6.724;2023-08-06T14:31:01;18.80;99.90
9837;DHT22;4957;51.412;6.724;2023-08-06T14:33:27;18.80;99.90
9837;DHT22;4957;51.412;6.724;2023-08-06T14:35:53;18.90;99.90
9837;DHT22;4957;51.412;6.724;2023-08-06T14:38:18;18.90;99.90
9837;DHT22;4957;51.412;6.724;2023-08-06T14:40:44;19.00;99.90
9837;DHT22;4957;51.412;6.724;2023-08-06T14:43:10;19.00;99.90
9837;DHT22;4957;51.412;6.724;2023-08-06T14:45:39;19.10;99.90
9837;DHT22;4957;51.412;6.724;2023-08-06T14:48:06;19.00;99.90
9837;DHT22;4957;51.412;6.724;2023-08-06T14:50:32;19.00;99.90
9837;DHT22;4957;51.412;6.724;2023-08-06T14:52:57;19.10;99.90
9837;DHT22;4957;51.412;6.724;2023-08-06T14:55:26;19.20;99.90
9837;DHT22;4957;51.412;6.724;2023-08-06T14:57:52;19.20;99.90
9837;DHT22;4957;51.412;6.724;2023-08-06T15:00:19;19.20;99.90
9837;DHT22;4957;51.412;6.724;2023-08-06T15:02:45;19.20;99.90
9837;DHT22;4957;51.412;6.724;2023-08-06T15:05:11;19.30;99.90
9837;DHT22;4957;51.412;6.724;2023-08-06T15:07:37;19.30;99.90
9837;DHT22;4957;51.412;6.724;2023-08-06T15:10:05;19.30;99.90
9837;DHT22;4957;51.412;6.724;2023-08-06T15:12:34;19.40;99.90
9837;DHT22;4957;51.412;6.724;2023-08-06T15:14:59;19.40;99.90
9837;DHT22;4957;51.412;6.724;2023-08-06T15:17:26;19.40;99.90
9837;DHT22;4957;51.412;6.724;2023-08-06T15:19:56;19.50;99.90
9837;DHT22;4957;51.412;6.724;2023-08-06T15:22:23;19.50;99.90
9837;DHT22;4957;51.412;6.724;2023-08-06T15:24:48;19.50;99.90
9837;DHT22;4957;51.412;6.724;2023-08-06T15:27:14;19.60;99.90
9837;DHT22;4957;51.412;6.724;2023-08-06T15:29:39;19.60;99.90
9837;DHT22;4957;51.412;6.724;2023-08-06T15:32:05;19.60;99.90
9837;DHT22;4957;51.412;6.724;2023-08-06T15:34:31;19.60;99.90
9837;DHT22;4957;51.412;6.724;2023-08-06T15:36:57;19.60;99.90
9837;DHT22;4957;51.412;6.724;2023-08-06T15:39:22;19.60;99.90
9837;DHT22;4957;51.412;6.724;2023-08-06T15:41:48;19.70;99.90
9837;DHT22;4957;51.412;6.724;2023-08-06T15:44:13;19.70;99.90
9837;DHT22;4957;51.412;6.724;2023-08-06T15:46:39;19.70;99.90
9837;DHT22;4957;51.412;6.724;2023-08-06T15:49:05;19.70;99.90
9837;DHT22;4957;51.412;6.724;2023-08-06T15:51:31;19.70;99.90
9837;DHT22;4957;51.412;6.724;2023-08-06T15:53:57;19.70;99.90
9837;DHT22;4957;51.412;6.724;2023-08-06T15:56:22;19.70;99.90
9837;DHT22;4957;51.412;6.724;2023-08-06T15:58:48;19.70;99.90
9837;DHT22;4957;51.412;6.724;2023-08-06T16:01:13;19.70;99.90
9837;DHT22;4957;51.412;6.724;2023-08-06T16:03:43;19.70;99.90
9837;DHT22;4957;51.412;6.724;2023-08-06T16:06:09;19.80;99.90
9837;DHT22;4957;51.412;6.724;2023-08-06T16:08:36;19.70;99.90
9837;DHT22;4957;51.412;6.724;2023-08-06T16:11:02;19.70;99.90
9837;DHT22;4957;51.412;6.724;2023-08-06T16:13:27;19.70;99.90